createdAt,value
2023-01-27T00:01:19.094Z,6.63
2023-01-27T00:03:47.108Z,6.33
2023-01-27T00:06:15.097Z,4.43
2023-01-27T00:08:43.001Z,4.20
2023-01-27T00:11:28.586Z,3.57
2023-01-27T00:13:58.129Z,7.50
2023-01-27T00:16:26.066Z,4.37
2023-01-27T00:18:54.018Z,6.30
2023-01-27T00:21:39.584Z,7.27
2023-01-27T00:24:25.216Z,7.03
2023-01-27T00:26:53.248Z,5.93
2023-01-27T00:29:22.925Z,4.17
2023-01-27T00:32:08.511Z,11.90
2023-01-27T00:34:36.398Z,4.10
2023-01-27T00:37:04.270Z,4.07
2023-01-27T00:39:32.208Z,3.43
2023-01-27T00:42:00.141Z,6.50
2023-01-27T00:44:29.470Z,7.30
2023-01-27T00:46:57.317Z,6.80
2023-01-27T00:49:25.308Z,6.90
2023-01-27T00:51:54.904Z,7.53
2023-01-27T00:54:22.830Z,6.37
2023-01-27T00:56:50.661Z,5.30
2023-01-27T00:59:18.567Z,4.23
2023-01-27T01:01:47.888Z,8.20
2023-01-27T01:04:15.888Z,5.30
2023-01-27T01:06:43.794Z,5.87
2023-01-27T01:09:11.674Z,7.67
2023-01-27T01:11:39.530Z,9.37
2023-01-27T01:14:07.423Z,8.33
2023-01-27T01:16:35.316Z,8.47
2023-01-27T01:19:04.601Z,6.07
2023-01-27T01:21:32.476Z,6.37
2023-01-27T01:24:00.348Z,6.40
2023-01-27T01:26:28.192Z,9.50
2023-01-27T01:28:56.133Z,6.53
2023-01-27T01:31:24.029Z,7.63
2023-01-27T01:33:51.911Z,7.17
2023-01-27T01:36:22.302Z,8.47
2023-01-27T01:38:50.505Z,5.30
2023-01-27T01:41:20.451Z,5.47
2023-01-27T01:43:48.770Z,5.77
2023-01-27T01:46:16.850Z,7.57
2023-01-27T01:48:47.992Z,8.77
2023-01-27T01:51:19.388Z,6.50
2023-01-27T01:53:52.639Z,8.33
2023-01-27T01:56:24.631Z,8.60
2023-01-27T01:58:54.435Z,6.67
2023-01-27T02:01:22.891Z,7.50
2023-01-27T02:03:54.845Z,7.57
2023-01-27T02:06:22.972Z,6.53
2023-01-27T02:08:52.818Z,5.60
2023-01-27T02:11:21.159Z,6.93
2023-01-27T02:13:49.434Z,6.57
2023-01-27T02:16:17.699Z,9.23
2023-01-27T02:18:45.832Z,7.93
2023-01-27T02:21:13.974Z,7.80
2023-01-27T02:23:54.446Z,7.97
2023-01-27T02:26:26.658Z,9.13
2023-01-27T02:28:57.173Z,8.43
2023-01-27T02:31:25.652Z,8.97
2023-01-27T02:33:58.435Z,8.53
2023-01-27T02:36:28.527Z,12.10
2023-01-27T02:38:58.937Z,8.90
2023-01-27T02:41:32.936Z,9.80
2023-01-27T02:44:01.228Z,12.27
2023-01-27T02:46:29.225Z,10.23
2023-01-27T02:48:57.251Z,9.60
2023-01-27T02:51:25.668Z,9.63
2023-01-27T02:53:53.614Z,9.63
2023-01-27T02:56:21.817Z,9.67
2023-01-27T02:58:51.130Z,8.73
2023-01-27T03:01:19.131Z,9.63
2023-01-27T03:03:47.880Z,7.60
2023-01-27T03:06:15.804Z,8.43
2023-01-27T03:08:44.071Z,8.80
2023-01-27T03:11:12.442Z,10.07
2023-01-27T03:13:40.542Z,7.97
2023-01-27T03:16:29.832Z,6.60
2023-01-27T03:18:57.813Z,5.27
2023-01-27T03:21:25.692Z,5.03
2023-01-27T03:23:53.558Z,6.13
2023-01-27T03:26:21.505Z,6.20
2023-01-27T03:29:09.404Z,5.60
2023-01-27T03:31:38.768Z,7.23
2023-01-27T03:34:06.750Z,7.37
2023-01-27T03:36:52.198Z,4.90
2023-01-27T03:39:37.580Z,6.87
2023-01-27T03:42:23.421Z,4.37
2023-01-27T03:45:08.942Z,3.93
2023-01-27T03:47:38.225Z,4.40
2023-01-27T03:50:13.837Z,3.80
2023-01-27T03:52:41.815Z,6.30
2023-01-27T03:55:10.881Z,3.43
2023-01-27T03:57:39.121Z,3.67
2023-01-27T04:00:08.846Z,3.73
2023-01-27T04:02:55.442Z,3.50
2023-01-27T04:05:40.835Z,3.10
2023-01-27T04:08:08.838Z,3.70
2023-01-27T04:10:36.789Z,2.70
2023-01-27T04:13:03.682Z,3.00
2023-01-27T04:15:31.592Z,3.63
2023-01-27T04:18:00.841Z,2.93
2023-01-27T04:20:28.694Z,3.97
2023-01-27T04:22:57.631Z,3.43
2023-01-27T04:25:25.544Z,2.27
2023-01-27T04:27:53.449Z,4.23
2023-01-27T04:30:21.497Z,3.43
2023-01-27T04:32:49.351Z,2.57
2023-01-27T04:35:21.521Z,2.57
2023-01-27T04:37:51.295Z,2.23
2023-01-27T04:40:19.552Z,3.83
2023-01-27T04:42:47.485Z,2.87
2023-01-27T04:45:16.209Z,3.40
2023-01-27T04:47:44.194Z,2.30
2023-01-27T04:50:12.767Z,2.63
2023-01-27T04:52:42.020Z,2.03
2023-01-27T04:55:11.220Z,3.83
2023-01-27T04:57:39.512Z,1.93
2023-01-27T05:00:08.580Z,2.03
2023-01-27T05:02:36.472Z,2.60
2023-01-27T05:05:04.700Z,1.90
2023-01-27T05:07:32.884Z,1.60
2023-01-27T05:10:02.139Z,2.00
2023-01-27T05:12:30.035Z,2.23
2023-01-27T05:14:57.904Z,1.50
2023-01-27T05:17:27.831Z,1.50
2023-01-27T05:19:55.701Z,1.60
2023-01-27T05:22:23.573Z,1.50
2023-01-27T05:24:51.447Z,2.13
2023-01-27T05:27:20.980Z,1.63
2023-01-27T05:29:48.924Z,1.37
2023-01-27T05:32:16.787Z,1.63
2023-01-27T05:34:44.669Z,2.20
2023-01-27T05:37:14.025Z,1.87
2023-01-27T05:39:41.987Z,1.47
2023-01-27T05:42:09.934Z,1.20
2023-01-27T05:44:39.147Z,2.60
2023-01-27T05:47:07.650Z,1.97
2023-01-27T05:49:36.165Z,1.50
2023-01-27T05:52:04.055Z,1.60
2023-01-27T05:54:31.968Z,1.37
2023-01-27T05:56:59.788Z,1.63
2023-01-27T05:59:27.798Z,2.40
2023-01-27T06:01:57.024Z,3.00
2023-01-27T06:04:24.911Z,1.53
2023-01-27T06:06:52.757Z,3.17
2023-01-27T06:09:20.583Z,1.47
2023-01-27T06:11:48.470Z,2.83
2023-01-27T06:14:16.430Z,1.57
2023-01-27T06:16:47.135Z,2.23
2023-01-27T06:19:16.503Z,1.70
2023-01-27T06:21:44.306Z,2.77
2023-01-27T06:24:13.495Z,3.90
2023-01-27T06:26:42.733Z,2.17
2023-01-27T06:29:10.652Z,1.67
2023-01-27T06:31:39.572Z,3.77
2023-01-27T06:34:07.481Z,4.00
2023-01-27T06:36:37.075Z,2.97
2023-01-27T06:39:05.233Z,1.23
2023-01-27T06:41:33.131Z,2.40
2023-01-27T06:44:01.031Z,3.93
2023-01-27T06:46:29.048Z,1.73
2023-01-27T06:48:56.980Z,3.40
2023-01-27T06:51:24.878Z,1.17
2023-01-27T06:53:54.205Z,2.53
2023-01-27T06:56:22.139Z,3.17
2023-01-27T06:58:50.197Z,4.47
2023-01-27T07:01:18.362Z,2.93
2023-01-27T07:03:46.302Z,2.93
2023-01-27T07:06:14.956Z,2.63
2023-01-27T07:08:45.630Z,4.03
2023-01-27T07:11:15.147Z,2.67
2023-01-27T07:13:43.230Z,2.37
2023-01-27T07:16:11.215Z,3.73
2023-01-27T07:18:39.221Z,4.23
2023-01-27T07:21:07.809Z,6.03
2023-01-27T07:23:35.689Z,2.00
2023-01-27T07:26:07.771Z,1.70
2023-01-27T07:28:44.994Z,2.27
2023-01-27T07:31:13.069Z,1.50
2023-01-27T07:33:40.989Z,13.57
2023-01-27T07:36:09.342Z,3.93
2023-01-27T07:38:38.862Z,5.97
2023-01-27T07:41:07.337Z,3.20
2023-01-27T07:43:35.391Z,4.37
2023-01-27T07:46:04.711Z,1.87
2023-01-27T07:48:32.936Z,3.33
2023-01-27T07:51:00.870Z,2.27
2023-01-27T07:53:28.733Z,1.70
2023-01-27T07:55:56.682Z,1.70
2023-01-27T07:58:24.620Z,1.30
2023-01-27T08:00:52.588Z,3.80
2023-01-27T08:03:25.450Z,1.87
2023-01-27T08:05:53.450Z,2.67
2023-01-27T08:08:21.353Z,3.37
2023-01-27T08:10:51.418Z,3.37
2023-01-27T08:13:19.327Z,2.50
2023-01-27T08:15:47.275Z,1.37
2023-01-27T08:18:15.226Z,2.47
2023-01-27T08:20:45.954Z,2.37
2023-01-27T08:23:14.080Z,4.80
2023-01-27T08:25:41.970Z,1.97
2023-01-27T08:28:09.883Z,2.37
2023-01-27T08:30:37.816Z,1.97
2023-01-27T08:33:05.956Z,1.50
2023-01-27T08:35:36.980Z,4.40
2023-01-27T08:38:06.369Z,2.57
2023-01-27T08:40:34.323Z,3.37
2023-01-27T08:43:04.901Z,3.77
2023-01-27T08:45:33.078Z,4.97
2023-01-27T08:48:00.988Z,2.30
2023-01-27T08:50:30.209Z,3.93
2023-01-27T08:52:59.132Z,3.83
2023-01-27T08:55:29.910Z,2.27
2023-01-27T08:57:57.867Z,2.20
2023-01-27T09:00:26.580Z,4.70
2023-01-27T09:02:54.606Z,2.77
2023-01-27T09:05:23.482Z,1.37
2023-01-27T09:07:51.803Z,2.43
2023-01-27T09:10:20.140Z,3.67
2023-01-27T09:12:49.866Z,1.80
2023-01-27T09:15:17.851Z,3.47
2023-01-27T09:17:45.772Z,1.73
2023-01-27T09:20:14.701Z,2.27
2023-01-27T09:22:43.137Z,3.57
2023-01-27T09:25:15.455Z,2.37
2023-01-27T09:27:43.620Z,1.97
2023-01-27T09:30:15.279Z,3.70
2023-01-27T09:32:43.772Z,1.47
2023-01-27T09:35:12.047Z,2.27
2023-01-27T09:37:44.403Z,6.40
2023-01-27T09:40:22.946Z,2.50
2023-01-27T09:43:16.348Z,1.00
2023-01-27T09:46:01.696Z,2.43
2023-01-27T09:48:42.487Z,0.97
2023-01-27T09:51:16.721Z,1.20
2023-01-27T09:54:08.953Z,1.83
2023-01-27T09:56:47.642Z,2.13
2023-01-27T09:59:42.060Z,0.80
2023-01-27T10:02:27.387Z,0.70
2023-01-27T10:05:10.528Z,1.47
2023-01-27T10:07:59.396Z,0.80
2023-01-27T10:10:42.549Z,1.23
2023-01-27T10:13:21.698Z,1.10
2023-01-27T10:16:03.117Z,5.40
2023-01-27T10:18:49.454Z,1.97
2023-01-27T10:21:22.648Z,1.20
2023-01-27T10:24:00.231Z,1.97
2023-01-27T10:26:36.440Z,1.13
2023-01-27T10:29:10.835Z,0.70
2023-01-27T10:31:44.150Z,1.60
2023-01-27T10:34:27.665Z,1.37
2023-01-27T10:37:05.305Z,1.70
2023-01-27T10:39:44.115Z,1.17
2023-01-27T10:42:25.779Z,2.13
2023-01-27T10:45:17.391Z,0.70
2023-01-27T10:48:00.125Z,1.60
2023-01-27T10:50:34.911Z,1.47
2023-01-27T10:53:11.326Z,0.80
2023-01-27T10:55:46.634Z,1.90
2023-01-27T10:58:21.263Z,1.63
2023-01-27T11:03:44.615Z,1.37
2023-01-27T11:06:17.289Z,2.20
2023-01-27T11:08:48.582Z,1.63
2023-01-27T11:11:37.795Z,2.67
2023-01-27T11:14:15.467Z,1.83
2023-01-27T11:16:49.423Z,1.63
2023-01-27T11:19:31.823Z,1.00
2023-01-27T11:22:10.283Z,1.97
2023-01-27T11:24:46.499Z,1.70
2023-01-27T11:27:23.710Z,0.90
2023-01-27T11:29:59.122Z,1.13
2023-01-27T11:32:39.458Z,2.47
2023-01-27T11:35:11.118Z,2.73
2023-01-27T11:37:41.921Z,1.73
2023-01-27T11:40:17.409Z,1.57
2023-01-27T11:42:46.089Z,1.37
2023-01-27T11:45:18.917Z,1.07
2023-01-27T11:47:51.921Z,2.63
2023-01-27T11:50:21.707Z,2.27
2023-01-27T11:52:55.975Z,1.70
2023-01-27T11:55:27.686Z,1.90
2023-01-27T11:58:03.259Z,1.50
2023-01-27T12:00:38.654Z,3.50
2023-01-27T12:03:14.918Z,1.13
2023-01-27T12:05:47.225Z,2.20
2023-01-27T12:08:37.825Z,2.53
2023-01-27T12:11:19.636Z,1.13
2023-01-27T12:13:53.264Z,2.03
2023-01-27T12:16:22.122Z,1.80
2023-01-27T12:18:55.031Z,1.27
2023-01-27T12:21:35.279Z,2.53
2023-01-27T12:24:06.234Z,1.10
2023-01-27T12:26:38.296Z,1.80
2023-01-27T12:29:08.878Z,2.10
2023-01-27T12:31:47.280Z,1.10
2023-01-27T12:34:25.323Z,1.27
2023-01-27T12:36:54.122Z,1.50
2023-01-27T12:39:33.187Z,1.10
2023-01-27T12:42:01.148Z,1.47
2023-01-27T12:44:42.274Z,1.40
2023-01-27T12:47:24.616Z,1.00
2023-01-27T12:49:52.515Z,1.87
2023-01-27T12:52:22.707Z,3.93
2023-01-27T12:54:54.018Z,2.93
2023-01-27T12:57:23.021Z,1.57
2023-01-27T12:59:53.515Z,1.50
2023-01-27T13:02:23.730Z,4.30
2023-01-27T13:04:55.738Z,3.33
2023-01-27T13:07:28.341Z,1.73
2023-01-27T13:10:02.540Z,2.07
2023-01-27T13:12:33.357Z,2.30
2023-01-27T13:15:10.486Z,1.40
2023-01-27T13:17:42.892Z,1.70
2023-01-27T13:20:20.013Z,1.70
2023-01-27T13:22:52.137Z,3.13
2023-01-27T13:25:25.685Z,1.53
2023-01-27T13:27:58.701Z,1.63
2023-01-27T13:30:31.706Z,1.67
2023-01-27T13:33:07.586Z,2.60
2023-01-27T13:35:43.964Z,2.50
2023-01-27T13:38:19.230Z,2.63
2023-01-27T13:40:49.141Z,11.37
2023-01-27T13:43:24.059Z,3.00
2023-01-27T13:45:56.255Z,2.30
2023-01-27T13:48:28.010Z,1.53
2023-01-27T13:51:03.498Z,1.67
2023-01-27T13:53:31.601Z,2.77
2023-01-27T13:56:12.274Z,2.03
2023-01-27T13:58:52.239Z,1.70
2023-01-27T14:01:29.352Z,2.30
2023-01-27T14:04:33.852Z,2.63
2023-01-27T14:07:11.761Z,1.67
2023-01-27T14:10:02.515Z,2.00
2023-01-27T14:12:43.060Z,1.67
2023-01-27T14:15:24.505Z,2.30
2023-01-27T14:18:01.399Z,3.73
2023-01-27T14:20:36.877Z,1.80
2023-01-27T14:23:17.526Z,4.27
2023-01-27T14:25:53.097Z,1.73
2023-01-27T14:28:32.031Z,1.67
2023-01-27T14:31:05.809Z,2.27
2023-01-27T14:33:48.404Z,1.80
2023-01-27T14:36:22.505Z,2.73
2023-01-27T14:39:00.329Z,1.93
2023-01-27T14:41:35.338Z,1.40
2023-01-27T14:44:11.821Z,1.57
2023-01-27T14:46:58.869Z,1.53
2023-01-27T14:49:41.876Z,1.50
2023-01-27T14:52:25.523Z,2.03
2023-01-27T14:55:09.062Z,1.80
2023-01-27T14:57:44.391Z,1.47
2023-01-27T15:00:32.398Z,3.20
2023-01-27T15:03:20.709Z,1.20
2023-01-27T15:05:58.708Z,1.17
2023-01-27T15:08:36.423Z,2.17
2023-01-27T15:11:25.332Z,1.20
2023-01-27T15:14:13.423Z,1.40
2023-01-27T15:16:57.261Z,1.60
2023-01-27T15:19:47.923Z,1.27
2023-01-27T15:22:34.397Z,1.47
2023-01-27T15:25:29.724Z,1.63
2023-01-27T15:27:58.892Z,1.80
2023-01-27T15:30:29.042Z,2.57
2023-01-27T15:32:58.514Z,1.80
2023-01-27T15:35:44.351Z,2.23
2023-01-27T15:38:35.409Z,2.87
2023-01-27T15:41:08.384Z,2.57
2023-01-27T15:43:40.422Z,3.37
2023-01-27T15:46:32.522Z,1.70
2023-01-27T15:49:04.601Z,1.87
2023-01-27T15:51:36.521Z,2.60
2023-01-27T15:54:05.620Z,1.90
2023-01-27T15:56:46.654Z,1.87
2023-01-27T15:59:21.718Z,2.67
2023-01-27T16:02:00.069Z,2.73
2023-01-27T16:04:32.183Z,2.60
2023-01-27T16:07:03.693Z,3.27
2023-01-27T16:09:37.316Z,1.97
2023-01-27T16:12:27.523Z,2.27
2023-01-27T16:15:29.130Z,2.80
2023-01-27T16:18:03.717Z,2.00
2023-01-27T16:20:34.288Z,2.30
2023-01-27T16:23:07.009Z,2.17
2023-01-27T16:25:43.924Z,2.83
2023-01-27T16:28:18.942Z,2.63
2023-01-27T16:30:57.699Z,3.70
2023-01-27T16:33:30.786Z,2.83
2023-01-27T16:36:07.182Z,2.70
2023-01-27T16:38:39.822Z,2.43
2023-01-27T16:41:17.593Z,3.10
2023-01-27T16:43:50.756Z,3.17
2023-01-27T16:46:31.278Z,3.13
2023-01-27T16:49:00.322Z,2.63
2023-01-27T16:51:31.029Z,3.30
2023-01-27T16:54:00.934Z,2.40
2023-01-27T16:56:31.894Z,2.57
2023-01-27T16:59:03.365Z,2.47
2023-01-27T17:01:38.665Z,3.30
2023-01-27T17:04:19.479Z,2.37
2023-01-27T17:06:50.333Z,2.73
2023-01-27T17:09:23.830Z,2.70
2023-01-27T17:11:53.642Z,3.13
2023-01-27T17:14:30.306Z,2.57
2023-01-27T17:17:00.976Z,2.83
2023-01-27T17:19:32.433Z,2.57
2023-01-27T17:22:04.306Z,3.00
2023-01-27T17:24:34.013Z,2.30
2023-01-27T17:27:05.842Z,2.40
2023-01-27T17:29:36.646Z,2.60
2023-01-27T17:32:16.048Z,3.00
2023-01-27T17:34:44.023Z,2.80
2023-01-27T17:37:17.707Z,2.90
2023-01-27T17:39:46.819Z,2.33
2023-01-27T17:42:16.855Z,2.90
2023-01-27T17:44:44.953Z,2.97
2023-01-27T17:47:15.717Z,2.80
2023-01-27T17:49:45.125Z,2.67
2023-01-27T17:52:19.714Z,2.83
2023-01-27T17:54:47.993Z,3.73
2023-01-27T17:57:21.551Z,3.00
2023-01-27T17:59:58.510Z,4.17
2023-01-27T18:02:28.972Z,3.27
2023-01-27T18:05:00.454Z,3.70
2023-01-27T18:07:30.017Z,4.07
2023-01-27T18:09:58.415Z,4.03
2023-01-27T18:12:33.361Z,3.93
2023-01-27T18:15:34.591Z,4.07
2023-01-27T18:18:03.786Z,6.90
2023-01-27T18:20:33.571Z,7.00
2023-01-27T18:23:02.155Z,6.80
2023-01-27T18:25:30.048Z,4.77
2023-01-27T18:28:00.399Z,3.90
2023-01-27T18:30:28.281Z,4.93
2023-01-27T18:33:06.673Z,3.70
2023-01-27T18:35:35.300Z,3.67
2023-01-27T18:38:05.110Z,3.10
2023-01-27T18:40:34.591Z,3.37
2023-01-27T18:43:05.082Z,4.40
2023-01-27T18:45:33.144Z,3.10
2023-01-27T18:48:03.918Z,3.30
2023-01-27T18:50:31.878Z,3.00
2023-01-27T18:52:59.866Z,3.60
2023-01-27T18:55:29.285Z,3.43
2023-01-27T18:57:58.855Z,4.03
2023-01-27T19:00:30.076Z,3.90
2023-01-27T19:03:01.255Z,6.53
2023-01-27T19:05:33.970Z,3.63
2023-01-27T19:08:02.255Z,6.70
2023-01-27T19:10:33.680Z,4.00
2023-01-27T19:13:02.854Z,3.70
2023-01-27T19:15:33.609Z,4.83
2023-01-27T19:18:03.974Z,3.83
2023-01-27T19:20:33.740Z,4.20
2023-01-27T19:23:01.641Z,4.53
2023-01-27T19:25:31.177Z,3.93
2023-01-27T19:28:05.435Z,26.43
2023-01-27T19:30:36.268Z,12.20
2023-01-27T19:33:05.291Z,4.97
2023-01-27T19:35:34.528Z,4.47
2023-01-27T19:38:05.394Z,4.60
2023-01-27T19:40:33.557Z,4.07
2023-01-27T19:43:01.473Z,4.43
2023-01-27T19:45:29.556Z,4.47
2023-01-27T19:47:59.772Z,6.07
2023-01-27T19:50:30.624Z,4.97
2023-01-27T19:53:00.517Z,4.57
2023-01-27T19:55:28.525Z,7.17
2023-01-27T19:57:56.445Z,6.20
2023-01-27T20:00:28.419Z,4.90
2023-01-27T20:02:57.094Z,8.07
2023-01-27T20:05:26.737Z,5.47
2023-01-27T20:07:55.575Z,14.13
2023-01-27T20:10:27.207Z,6.70
2023-01-27T20:12:57.237Z,4.97
2023-01-27T20:15:26.052Z,9.63
2023-01-27T20:17:54.851Z,5.50
2023-01-27T20:20:24.382Z,7.20
2023-01-27T20:22:52.997Z,11.53
2023-01-27T20:25:23.138Z,6.40
2023-01-27T20:27:53.843Z,5.40
2023-01-27T20:30:24.010Z,8.43
2023-01-27T20:32:53.846Z,6.30
2023-01-27T20:35:23.000Z,5.23
2023-01-27T20:37:52.441Z,5.37
2023-01-27T20:40:22.246Z,6.40
2023-01-27T20:42:52.078Z,5.00
2023-01-27T20:45:20.472Z,5.00
2023-01-27T20:47:50.480Z,4.80
2023-01-27T20:50:19.092Z,5.47
2023-01-27T20:52:48.354Z,4.77
2023-01-27T20:55:17.503Z,4.20
2023-01-27T20:57:45.670Z,3.90
2023-01-27T21:00:20.141Z,3.73
2023-01-27T21:02:48.290Z,4.10
2023-01-27T21:05:17.156Z,3.87
2023-01-27T21:07:45.347Z,6.27
2023-01-27T21:10:13.273Z,3.87
2023-01-27T21:12:41.187Z,3.30
2023-01-27T21:15:10.629Z,4.37
2023-01-27T21:17:39.872Z,3.53
2023-01-27T21:20:08.948Z,4.33
2023-01-27T21:22:36.888Z,3.67
2023-01-27T21:25:05.068Z,6.73
2023-01-27T21:27:32.978Z,4.53
2023-01-27T21:30:00.835Z,4.17
2023-01-27T21:32:28.807Z,4.40
2023-01-27T21:34:59.711Z,3.60
2023-01-27T21:37:27.799Z,3.77
2023-01-27T21:39:55.814Z,4.23
2023-01-27T21:42:41.332Z,4.83
2023-01-27T21:45:15.333Z,4.60
2023-01-27T21:47:43.982Z,3.67
2023-01-27T21:50:14.697Z,4.27
2023-01-27T21:52:45.992Z,4.00
2023-01-27T21:55:15.900Z,4.13
2023-01-27T21:57:45.720Z,7.77
2023-01-27T22:00:16.159Z,5.50
2023-01-27T22:02:44.322Z,6.43
2023-01-27T22:05:14.103Z,5.07
2023-01-27T22:07:42.188Z,5.10
2023-01-27T22:10:15.517Z,6.87
2023-01-27T22:12:43.494Z,5.83
2023-01-27T22:15:13.926Z,10.90
2023-01-27T22:17:42.191Z,17.50
2023-01-27T22:20:15.474Z,26.77
2023-01-27T22:22:43.995Z,8.37
2023-01-27T22:25:14.011Z,5.70
2023-01-27T22:27:42.575Z,3.97
2023-01-27T22:30:13.774Z,4.47
2023-01-27T22:32:42.245Z,3.97
2023-01-27T22:35:11.799Z,4.10
2023-01-27T22:37:41.568Z,4.33
2023-01-27T22:40:11.371Z,4.30
2023-01-27T22:42:40.113Z,4.10
2023-01-27T22:45:10.108Z,3.93
2023-01-27T22:47:38.354Z,4.00
2023-01-27T22:50:07.196Z,4.30
2023-01-27T22:52:37.159Z,3.80
2023-01-27T22:55:07.445Z,4.17
2023-01-27T22:57:35.750Z,4.63
2023-01-27T23:00:04.613Z,4.30
2023-01-27T23:02:32.898Z,4.23
2023-01-27T23:05:00.945Z,4.00
2023-01-27T23:07:28.986Z,4.60
2023-01-27T23:09:57.037Z,4.13
2023-01-27T23:12:26.511Z,4.70
2023-01-27T23:14:54.616Z,4.57
2023-01-27T23:17:22.659Z,4.20
2023-01-27T23:19:50.691Z,4.57
2023-01-27T23:22:18.735Z,4.30
2023-01-27T23:24:46.756Z,4.13
2023-01-27T23:27:14.828Z,6.80
2023-01-27T23:29:44.241Z,4.17
2023-01-27T23:32:12.292Z,3.93
2023-01-27T23:34:40.317Z,4.60
2023-01-27T23:37:08.331Z,5.57
2023-01-27T23:39:36.343Z,4.13
2023-01-27T23:42:04.431Z,5.57
2023-01-27T23:44:32.507Z,6.33
2023-01-27T23:47:01.993Z,4.57
2023-01-27T23:49:29.992Z,4.70
2023-01-27T23:51:58.029Z,5.40
2023-01-27T23:54:26.180Z,6.60
2023-01-27T23:56:54.215Z,5.07
2023-01-27T23:59:22.309Z,6.47
